logo
Rechercher aéroport 
image banner adimage banner adimage banner ad
image banner ad

KACV - Arcata

Situé à Arcata/Eureka, United States

ICAO - ACV, IATA - ACV

Données fournies par Airmate  

Information générale

Coordonnées: N40°58'40" W124°6'30"
Élévation : 222 feet MSL.
Variation magnétique : 17° East
Voir autres Aéroports à California

Données opérationnelles

Special qualification required
Heure actuelle UTC:
Heure actuelle locale:
Météo
METAR: KACV 281153Z AUTO 08004KT 10SM SCT060 BKN070 OVC110 13/12 A3001 RMK AO2 SLP168 60000 70001 T01280117 10128 20094 58003
TAF: KACV 281128Z 2812/2912 10003KT P6SM VCSH BKN060 FM281500 12004KT 4SM -RA BKN015 FM281900 28007KT 6SM BR VCSH SCT007 BKN012 FM282300 31008KT P6SM FEW008 BKN015 FM290400 25003KT 5SM BR BKN012
Voir NOTAMs / SUP AIP / TFR affectant cet aéroport [VIEW]
Fréquences de communication: [VIEW]

Pistes:

Identifiant RWYQFULongueur (ft)Largeur (ft)SurfaceLDA (ft)
0130°4501150ASPH4501
19210°4501150ASPH4501
14153°6046150ASPH5601
32333°6046150ASPH5846

Coordonnées de l'aéroport

Adresse: Arcata/Eureka United States

Vue satellite de KACV